Latest Weather Observations for Braidwood

IDN60801

Issued at 11:35 am EST Sunday 21 September 2014 (issued every 30 minutes, with the page automatically refreshed every 10 minutes)

About weather observations | Map of weather stations | Latest weather observations for NSW | Other Formats
Station Details ID: 069132 Name: BRAIDWOOD RACECOURSE AWS Lat: -35.43 Lon: 149.78 Height: 665.2 m
Data from the previous 72 hours. | See also: Recent months at Braidwood
Date/Time
EST
Temp
°C
App
Temp
°C
Dew
Point
Rel
Hum
%
Delta-T
°C
Wind Press
QNH
hPa
Press
MSL
hPa
Rain
since 9 am
mm
Dir
 
Spd
km/h
Gust
km/h
Spd
kts
Gust
kts
21/11:30am 14.6 13.1 6.9 60 3.9 N 4 13 2 7 1029.4 1029.5 0.0
21/11:00am 14.2 12.0 6.1 58 4.0 N 7 15 4 8 1029.6 1029.7 0.0
21/10:30am 12.5 10.6 5.0 60 3.6 WNW 4 9 2 5 1030.0 1030.2 0.0
21/10:00am 13.2 11.2 6.1 62 3.5 N 6 11 3 6 1030.3 1030.4 0.0
21/09:30am 12.6 11.0 6.4 66 3.1 N 4 9 2 5 1030.5 1030.6 0.0
21/09:00am 11.4 9.3 5.9 69 2.6 NNE 6 11 3 6 1030.5 1030.6 0.0
21/08:30am 9.4 7.1 4.8 73 2.1 NW 6 9 3 5 1030.6 1030.7 0.0
21/08:00am 10.0 9.1 6.2 77 1.8 CALM 0 6 0 3 1030.5 1030.6 0.0
21/07:30am 8.7 8.1 7.6 93 0.5 CALM 0 4 0 2 1030.1 1030.3 0.0
21/07:00am 6.5 5.5 5.8 95 0.3 CALM 0 2 0 1 1029.6 1029.7 0.0
21/06:30am 5.7 4.6 5.0 95 0.3 CALM 0 0 0 0 1029.2 1029.3 0.0
21/06:00am 5.6 4.5 4.9 95 0.3 SE 0 0 0 0 1028.7 1028.7 0.0
21/05:30am 6.2 5.2 5.6 96 0.3 CALM 0 0 0 0 1028.1 1028.2 0.0
21/05:00am 6.0 5.0 5.4 96 0.3 CALM 0 0 0 0 1027.7 1027.8 0.0
21/04:30am 5.5 4.4 4.9 96 0.3 CALM 0 0 0 0 1027.5 1027.6 0.0
21/04:00am 5.1 3.9 4.4 95 0.3 CALM 0 0 0 0 1027.1 1027.1 0.0
21/03:30am 3.9 2.4 2.9 93 0.4 N 0 0 0 0 1027.3 1027.3 0.0
21/03:00am 5.3 4.0 4.1 92 0.5 CALM 0 0 0 0 1027.3 1027.3 0.0
21/02:30am 6.8 5.9 5.9 94 0.4 CALM 0 0 0 0 1027.7 1027.8 0.0
21/02:00am 7.1 6.2 6.0 93 0.5 CALM 0 0 0 0 1027.7 1027.8 0.0
21/01:30am 7.5 6.7 6.4 93 0.5 CALM 0 0 0 0 1028.0 1028.1 0.0
21/01:00am 8.0 7.3 6.9 93 0.5 CALM 0 0 0 0 1028.3 1028.4 0.0
21/12:30am 8.0 6.9 6.9 93 0.5 S 2 4 1 2 1028.4 1028.5 0.0
21/12:00am 8.1 6.7 7.2 94 0.4 S 4 9 2 5 1028.5 1028.6 0.0
 
Date/Time
EST
Temp
°C
App
Temp
°C
Dew
Point
Rel
Hum
%
Delta-T
°C
Wind Press
QNH
hPa
Press
MSL
hPa
Rain
since 9 am
mm
Dir
 
Spd
km/h
Gust
km/h
Spd
kts
Gust
kts
20/11:30pm 7.3 6.4 6.2 93 0.5 CALM 0 0 0 0 1028.4 1028.5 0.0
20/11:00pm 6.9 5.9 5.7 92 0.6 CALM 0 0 0 0 1028.7 1028.7 0.0
20/10:30pm 7.0 6.0 5.6 91 0.7 CALM 0 0 0 0 1028.5 1028.6 0.0
20/10:00pm 7.2 6.3 6.0 92 0.6 CALM 0 0 0 0 1028.5 1028.6 0.0
20/09:30pm 7.2 6.3 6.1 93 0.5 CALM 0 0 0 0 1028.4 1028.5 0.0
20/09:00pm 6.5 5.5 5.5 93 0.5 CALM 0 0 0 0 1028.2 1028.3 0.0
20/08:30pm 6.2 5.0 4.8 91 0.6 CALM 0 0 0 0 1028.1 1028.2 0.0
20/08:00pm 6.0 4.7 4.3 89 0.8 CALM 0 0 0 0 1027.7 1027.8 0.0
20/07:30pm 6.4 5.2 4.6 88 0.8 CALM 0 0 0 0 1027.5 1027.6 0.0
20/07:00pm 6.6 4.5 3.9 83 1.2 SE 4 9 2 5 1027.1 1027.1 0.0
20/06:30pm 7.5 4.4 3.7 77 1.7 ESE 9 11 5 6 1026.3 1026.4 0.0
20/06:00pm 8.8 5.1 4.2 73 2.1 ESE 13 19 7 10 1025.8 1025.8 0.0
20/05:30pm 10.4 5.5 3.9 64 3.0 ESE 19 26 10 14 1024.8 1024.8 0.0
20/05:00pm 11.7 6.2 4.2 60 3.5 ESE 22 28 12 15 1024.2 1024.2 0.0
20/04:30pm 13.2 8.2 4.4 55 4.2 ESE 20 28 11 15 1023.9 1023.9 0.0
20/04:00pm 14.4 9.4 3.8 49 5.0 ESE 19 24 10 13 1023.3 1023.3 0.0
20/03:30pm 15.1 11.9 0.5 37 6.5 ESE 7 13 4 7 1023.1 1023.1 0.0
20/03:00pm 15.1 12.2 1.3 39 6.2 E 6 13 3 7 1023.1 1023.1 0.0
20/02:30pm 14.8 12.3 1.3 40 6.1 NE 4 13 2 7 1023.2 1023.2 0.0
20/02:00pm 14.5 11.7 1.8 42 5.7 ENE 6 9 3 5 1023.2 1023.2 0.0
20/01:30pm 13.9 10.9 0.9 41 5.8 E 6 11 3 6 1023.3 1023.3 0.0
20/01:00pm 13.6 10.4 0.6 41 5.7 E 7 11 4 6 1023.6 1023.7 0.0
20/12:30pm 13.8 11.2 1.1 42 5.6 NE 4 9 2 5 1023.9 1023.9 0.0
20/12:00pm 12.6 9.4 1.0 45 5.1 E 7 13 4 7 1024.1 1024.1 0.0
20/11:30am 12.6 9.8 2.2 49 4.7 E 6 11 3 6 1024.5 1024.5 0.0
20/11:00am 12.1 9.4 2.6 52 4.3 E 6 9 3 5 1024.5 1024.5 0.0
20/10:30am 11.2 8.2 1.7 52 4.2 ENE 7 11 4 6 1024.5 1024.5 0.0
20/10:00am 10.7 7.9 1.8 54 3.9 S 6 9 3 5 1024.8 1024.8 0.0
20/09:30am 10.1 7.3 2.0 57 3.6 SE 6 11 3 6 1024.9 1025.0 0.0
20/09:00am 9.5 6.8 2.4 61 3.1 SSE 6 9 3 5 1024.8 1024.8 0.2
20/08:30am 8.8 6.2 3.2 68 2.5 SW 6 9 3 5 1024.5 1024.5 0.2
20/08:00am 7.8 6.0 3.7 75 1.8 S 2 6 1 3 1024.4 1024.4 0.2
20/07:30am 6.0 4.6 3.8 86 1.0 CALM 0 0 0 0 1024.1 1024.1 0.2
20/07:00am 2.6 0.1 1.7 94 0.4 SSE 4 4 2 2 1023.8 1023.8 0.2
20/06:30am 0.6 -1.4 0.0 96 0.2 CALM 0 0 0 0 1023.4 1023.4 0.2
20/06:00am -0.8 -3.0 -1.5 95 0.2 CALM 0 0 0 0 1023.0 1023.0 0.2
20/05:30am -0.9 -3.1 -1.6 95 0.2 CALM 0 0 0 0 1022.6 1022.6 0.2
20/05:00am -0.6 -2.8 -1.3 95 0.2 CALM 0 0 0 0 1022.2 1022.1 0.2
20/04:30am -1.2 -3.4 -1.9 95 0.2 CALM 0 0 0 0 1021.6 1021.6 0.2
20/04:00am -0.9 -3.1 -1.6 95 0.2 CALM 0 0 0 0 1021.4 1021.4 0.2
20/03:30am -1.1 -3.3 -1.9 94 0.2 CALM 0 0 0 0 1021.3 1021.3 0.2
20/03:00am -0.4 -2.9 -1.1 95 0.2 SSW 2 6 1 3 1021.2 1021.2 0.2
20/02:30am -1.1 -3.4 -2.1 93 0.3 CALM 0 0 0 0 1021.1 1021.1 0.2
20/02:00am -0.9 -3.1 -1.9 93 0.3 CALM 0 0 0 0 1021.3 1021.3 0.2
20/01:30am -0.1 -2.2 -1.1 93 0.4 CALM 0 0 0 0 1021.4 1021.4 0.2
20/01:00am 0.1 -2.0 -1.0 92 0.4 CALM 0 0 0 0 1021.4 1021.4 0.2
20/12:30am 1.0 -1.1 -0.6 89 0.6 CALM 0 0 0 0 1021.5 1021.5 0.2
20/12:00am 2.0 0.1 0.7 91 0.5 CALM 0 4 0 2 1021.4 1021.4 0.2
 
Date/Time
EST
Temp
°C
App
Temp
°C
Dew
Point
Rel
Hum
%
Delta-T
°C
Wind Press
QNH
hPa
Press
MSL
hPa
Rain
since 9 am
mm
Dir
 
Spd
km/h
Gust
km/h
Spd
kts
Gust
kts
19/11:30pm 2.0 0.0 -0.1 86 0.8 CALM 0 0 0 0 1021.6 1021.6 0.2
19/11:00pm 4.2 1.6 3.0 92 0.5 SW 6 9 3 5 1021.9 1021.9 0.2
19/10:30pm 1.9 -0.4 0.3 89 0.6 S 2 4 1 2 1022.2 1022.1 0.2
19/10:00pm 2.3 0.4 0.4 87 0.7 CALM 0 4 0 2 1022.0 1022.0 0.2
19/09:30pm 3.1 0.8 0.5 83 1.0 NNW 2 6 1 3 1021.9 1021.9 0.2
19/09:00pm 3.8 2.0 1.4 84 1.0 CALM 0 0 0 0 1021.9 1021.9 0.2
19/08:30pm 4.0 2.2 0.9 80 1.2 CALM 0 0 0 0 1021.9 1021.9 0.2
19/08:00pm 4.8 3.0 1.3 78 1.4 CALM 0 0 0 0 1021.7 1021.7 0.2
19/07:30pm 5.8 2.7 1.5 74 1.8 SSE 7 9 4 5 1021.3 1021.3 0.2
19/07:00pm 6.4 4.0 1.9 73 1.9 NNE 4 7 2 4 1021.0 1020.9 0.2
19/06:30pm 7.8 4.8 2.3 68 2.4 SE 7 9 4 5 1020.4 1020.4 0.2
19/06:00pm 8.1 4.8 2.4 67 2.5 E 9 11 5 6 1020.1 1020.1 0.2
19/05:30pm 9.4 5.8 3.2 65 2.8 E 11 15 6 8 1019.6 1019.5 0.2
19/05:00pm 11.8 6.7 3.1 55 4.0 ESE 19 22 10 12 1019.2 1019.1 0.2
19/04:30pm 13.7 8.8 -3.5 30 6.9 SSE 13 17 7 9 1018.7 1018.7 0.2
19/04:00pm 14.6 10.2 -2.8 30 7.1 SSE 11 17 6 9 1018.4 1018.4 0.2
19/03:30pm 14.5 9.5 -4.2 27 7.5 SSE 13 19 7 10 1018.3 1018.2 0.2
19/03:00pm 14.6 10.0 -4.2 27 7.5 S 11 19 6 10 1018.3 1018.2 0.2
19/02:30pm 14.9 9.6 -3.9 27 7.6 SSE 15 22 8 12 1018.4 1018.4 0.2
19/02:00pm 14.9 10.0 -3.4 28 7.4 SSE 13 22 7 12 1018.5 1018.5 0.2
19/01:30pm 15.0 11.5 -2.9 29 7.4 N 6 11 3 6 1018.6 1018.6 0.2
19/01:00pm 14.5 11.5 -1.6 33 6.8 NNE 4 6 2 3 1019.2 1019.1 0.2
19/12:30pm 13.1 9.7 -2.0 35 6.2 W 6 9 3 5 1019.7 1019.7 0.2
19/12:00pm 12.6 9.3 -1.3 38 5.8 WNW 6 11 3 6 1020.0 1020.0 0.2
19/11:30am 12.7 9.4 -1.2 38 5.8 NW 6 13 3 7 1020.6 1020.5 0.2
19/11:00am 12.1 9.3 -0.4 42 5.3 WNW 4 11 2 6 1020.9 1020.8 0.2
19/10:30am 11.1 9.0 -0.7 44 4.9 CALM 0 6 0 3 1021.3 1021.3 0.0
19/10:00am 10.0 7.4 -1.4 45 4.6 S 2 7 1 4 1021.5 1021.5 0.0
19/09:30am 8.9 5.7 -0.7 51 3.9 S 6 9 3 5 1021.8 1021.8 0.0
19/09:00am 7.7 5.1 0.7 61 2.9 E 4 7 2 4 1021.8 1021.8 0.2
19/08:30am 6.4 4.7 2.1 74 1.8 CALM 0 0 0 0 1021.8 1021.8 0.2
19/08:00am 4.8 3.3 3.0 88 0.8 CALM 0 0 0 0 1021.6 1021.6 0.2
19/07:30am 1.6 -0.3 0.3 91 0.5 CALM 0 0 0 0 1021.4 1021.4 0.2
19/07:00am -0.6 -3.6 -1.7 92 0.4 SE 4 6 2 3 1021.4 1021.4 0.2
19/06:30am -2.2 -5.0 -3.2 93 0.2 S 2 4 1 2 1021.2 1021.2 0.2
19/06:00am -1.8 -4.5 -2.5 95 0.2 NNW 2 6 1 3 1020.9 1020.8 0.2
19/05:30am -1.6 -3.9 -2.4 94 0.2 CALM 0 2 0 1 1020.6 1020.5 0.2
19/05:00am -0.6 -3.2 -1.4 94 0.3 N 2 6 1 3 1020.3 1020.3 0.2
19/04:30am -0.5 -3.4 -1.3 94 0.3 N 4 7 2 4 1020.1 1020.1 0.2
19/04:00am -0.4 -2.9 -1.2 94 0.3 NNW 2 6 1 3 1019.7 1019.7 0.2
19/03:30am -0.1 -2.6 -0.9 94 0.3 N 2 6 1 3 1019.7 1019.7 0.2
19/03:00am -0.1 -2.2 -1.1 93 0.4 CALM 0 0 0 0 1019.9 1019.9 0.2
19/02:30am 0.5 -2.7 -0.6 92 0.4 N 6 7 3 4 1020.1 1020.1 0.2
19/02:00am 0.5 -2.0 -0.9 90 0.5 W 2 4 1 2 1020.2 1020.2 0.2
19/01:30am 1.2 -2.0 -0.6 88 0.7 NNW 6 7 3 4 1020.6 1020.5 0.2
19/01:00am 2.2 0.1 -0.7 81 1.1 CALM 0 0 0 0 1020.7 1020.6 0.2
19/12:30am 2.9 -0.7 0.5 84 0.9 WSW 9 11 5 6 1020.7 1020.6 0.2
19/12:00am 2.4 0.5 0.8 89 0.6 CALM 0 0 0 0 1021.0 1020.9 0.2
 
Date/Time
EST
Temp
°C
App
Temp
°C
Dew
Point
Rel
Hum
%
Delta-T
°C
Wind Press
QNH
hPa
Press
MSL
hPa
Rain
since 9 am
mm
Dir
 
Spd
km/h
Gust
km/h
Spd
kts
Gust
kts
18/11:30pm 3.4 0.5 1.6 88 0.7 SW 6 7 3 4 1021.0 1020.9 0.2
18/11:00pm 3.7 1.0 2.5 92 0.5 SSW 6 9 3 5 1021.0 1020.9 0.2
18/10:30pm 3.4 1.8 2.5 94 0.4 CALM 0 0 0 0 1021.1 1021.1 0.2
18/10:00pm 2.0 0.1 0.8 92 0.5 CALM 0 0 0 0 1021.1 1021.1 0.2
18/09:30pm 2.7 0.9 0.9 88 0.7 CALM 0 0 0 0 1020.8 1020.7 0.2
18/09:00pm 3.0 1.1 0.7 85 0.9 CALM 0 0 0 0 1020.9 1020.8 0.2
18/08:30pm 4.7 2.8 2.7 87 0.8 ESE 2 7 1 4 1020.7 1020.6 0.2
18/08:00pm 4.6 2.2 2.1 84 1.0 SE 4 6 2 3 1020.3 1020.3 0.2
18/07:30pm 4.6 1.7 1.5 80 1.3 ENE 6 9 3 5 1020.0 1020.0 0.2
18/07:00pm 6.2 4.2 2.5 77 1.6 N 2 9 1 5 1019.7 1019.7 0.2
18/06:30pm 7.1 5.5 2.4 72 2.0 CALM 0 0 0 0 1019.5 1019.4 0.2
18/06:00pm 7.8 4.9 2.5 69 2.3 SSW 7 11 4 6 1019.4 1019.3 0.2
18/05:30pm 9.3 5.1 1.9 60 3.2 W 13 24 7 13 1018.6 1018.6 0.2
18/05:00pm 9.5 5.8 2.1 60 3.2 W 11 20 6 11 1018.2 1018.1 0.0
18/04:30pm 9.7 5.0 3.0 63 3.0 NW 17 26 9 14 1017.7 1017.6 0.0
18/04:00pm 10.8 7.5 2.4 56 3.7 NNW 9 20 5 11 1017.1 1017.1 0.0
18/03:30pm 11.1 7.3 1.6 52 4.2 NNW 11 20 6 11 1016.9 1016.8 0.0
18/03:00pm 11.9 8.5 1.8 50 4.5 NNW 9 15 5 8 1016.7 1016.6 0.0
18/02:30pm 12.4 8.9 1.4 47 4.9 N 9 17 5 9 1016.5 1016.4 0.0
18/02:00pm 13.1 9.7 -0.5 39 5.8 W 7 13 4 7 1016.6 1016.5 0.0
18/01:30pm 12.9 9.4 -2.6 34 6.3 W 6 9 3 5 1016.7 1016.6 0.0
18/01:00pm 13.4 10.4 -2.1 34 6.4 S 4 15 2 8 1016.8 1016.7 0.0
18/12:30pm 11.9 8.1 -3.8 33 6.1 SE 7 11 4 6 1017.0 1016.9 0.0
18/12:00pm 11.9 5.9 -3.1 35 6.0 SSW 19 26 10 14 1017.2 1017.2 0.0

Other Formats:

Comma delimited format used in spreadsheet applications
http://www.bom.gov.au/fwo/IDN60801/IDN60801.94927.axf

JavaScript Object Notation format (JSON) in row-major order
http://www.bom.gov.au/fwo/IDN60801/IDN60801.94927.json